sensor_id;sensor_type;location;lat;lon;timestamp;pressure;altitude;pressure_sealevel;temperature;humidity
74403;BME280;62837;51.082;13.744;2023-04-03T00:01:39;101449.82;;;3.89;58.60
74403;BME280;62837;51.082;13.744;2023-04-03T00:04:10;101452.23;;;3.86;58.35
74403;BME280;62837;51.082;13.744;2023-04-03T00:06:41;101452.86;;;3.81;58.18
74403;BME280;62837;51.082;13.744;2023-04-03T00:09:12;101455.48;;;3.75;58.71
74403;BME280;62837;51.082;13.744;2023-04-03T00:11:42;101449.91;;;3.73;59.19
74403;BME280;62837;51.082;13.744;2023-04-03T00:14:13;101456.56;;;3.76;59.22
74403;BME280;62837;51.082;13.744;2023-04-03T00:16:44;101456.52;;;3.74;58.66
74403;BME280;62837;51.082;13.744;2023-04-03T00:19:15;101459.59;;;3.71;59.03
74403;BME280;62837;51.082;13.744;2023-04-03T00:21:45;101462.27;;;3.71;59.28
74403;BME280;62837;51.082;13.744;2023-04-03T00:24:16;101467.14;;;3.70;58.76
74403;BME280;62837;51.082;13.744;2023-04-03T00:26:47;101479.97;;;3.66;59.16
74403;BME280;62837;51.082;13.744;2023-04-03T00:29:17;101474.45;;;3.64;59.09
74403;BME280;62837;51.082;13.744;2023-04-03T00:31:48;101482.58;;;3.64;59.14
74403;BME280;62837;51.082;13.744;2023-04-03T00:34:19;101483.88;;;3.67;59.31
74403;BME280;62837;51.082;13.744;2023-04-03T00:36:50;101484.94;;;3.67;59.57
74403;BME280;62837;51.082;13.744;2023-04-03T00:39:21;101488.64;;;3.66;59.09
74403;BME280;62837;51.082;13.744;2023-04-03T00:41:52;101489.90;;;3.66;59.46
74403;BME280;62837;51.082;13.744;2023-04-03T00:47:31;101490.04;;;3.67;59.38
74403;BME280;62837;51.082;13.744;2023-04-03T00:50:04;101488.71;;;3.66;59.03
74403;BME280;62837;51.082;13.744;2023-04-03T00:52:35;101493.39;;;3.69;59.15
74403;BME280;62837;51.082;13.744;2023-04-03T00:55:09;101490.73;;;3.70;58.60
74403;BME280;62837;51.082;13.744;2023-04-03T00:57:40;101496.04;;;3.68;58.18
74403;BME280;62837;51.082;13.744;2023-04-03T01:00:14;101495.28;;;3.68;59.21
74403;BME280;62837;51.082;13.744;2023-04-03T01:02:46;101499.05;;;3.69;58.72
74403;BME280;62837;51.082;13.744;2023-04-03T01:05:18;101499.92;;;3.69;59.16
74403;BME280;62837;51.082;13.744;2023-04-03T01:07:51;101503.71;;;3.70;58.68
74403;BME280;62837;51.082;13.744;2023-04-03T01:10:23;101503.02;;;3.73;58.67
74403;BME280;62837;51.082;13.744;2023-04-03T01:12:55;101505.59;;;3.71;58.36
74403;BME280;62837;51.082;13.744;2023-04-03T01:15:27;101507.98;;;3.70;58.72
74403;BME280;62837;51.082;13.744;2023-04-03T01:18:04;101512.73;;;3.69;58.69
74403;BME280;62837;51.082;13.744;2023-04-03T01:20:56;101513.03;;;3.68;58.38
74403;BME280;62837;51.082;13.744;2023-04-03T01:23:36;101515.66;;;3.65;58.36
74403;BME280;62837;51.082;13.744;2023-04-03T01:26:11;101518.64;;;3.61;57.89
74403;BME280;62837;51.082;13.744;2023-04-03T01:28:42;101522.83;;;3.55;57.31
74403;BME280;62837;51.082;13.744;2023-04-03T01:31:19;101526.79;;;3.49;58.26
74403;BME280;62837;51.082;13.744;2023-04-03T01:33:51;101524.96;;;3.45;58.67
74403;BME280;62837;51.082;13.744;2023-04-03T01:36:25;101531.79;;;3.45;58.34
74403;BME280;62837;51.082;13.744;2023-04-03T01:38:57;101534.06;;;3.46;58.56
74403;BME280;62837;51.082;13.744;2023-04-03T01:41:29;101533.98;;;3.50;58.79
74403;BME280;62837;51.082;13.744;2023-04-03T01:44:06;101540.27;;;3.51;58.82
74403;BME280;62837;51.082;13.744;2023-04-03T01:46:36;101538.83;;;3.49;58.95
74403;BME280;62837;51.082;13.744;2023-04-03T01:49:09;101539.42;;;3.47;58.43
74403;BME280;62837;51.082;13.744;2023-04-03T01:51:39;101542.42;;;3.43;58.05
74403;BME280;62837;51.082;13.744;2023-04-03T01:54:10;101543.95;;;3.38;58.16
74403;BME280;62837;51.082;13.744;2023-04-03T01:56:41;101545.41;;;3.32;58.28
74403;BME280;62837;51.082;13.744;2023-04-03T01:59:12;101554.14;;;3.32;58.55
74403;BME280;62837;51.082;13.744;2023-04-03T02:01:43;101552.92;;;3.31;58.76
74403;BME280;62837;51.082;13.744;2023-04-03T02:04:16;101557.28;;;3.30;58.37
74403;BME280;62837;51.082;13.744;2023-04-03T02:06:47;101560.02;;;3.28;58.94
74403;BME280;62837;51.082;13.744;2023-04-03T02:09:18;101559.17;;;3.28;58.93
74403;BME280;62837;51.082;13.744;2023-04-03T02:11:49;101559.48;;;3.21;58.39
74403;BME280;62837;51.082;13.744;2023-04-03T02:14:19;101567.68;;;3.19;58.26
74403;BME280;62837;51.082;13.744;2023-04-03T02:16:51;101565.27;;;3.16;58.56
74403;BME280;62837;51.082;13.744;2023-04-03T02:19:24;101553.20;;;3.04;58.67
74403;BME280;62837;51.082;13.744;2023-04-03T02:21:55;101567.32;;;3.13;58.86
74403;BME280;62837;51.082;13.744;2023-04-03T02:24:25;101570.64;;;3.14;58.61
74403;BME280;62837;51.082;13.744;2023-04-03T02:26:56;101572.00;;;3.03;58.01
74403;BME280;62837;51.082;13.744;2023-04-03T02:29:28;101575.35;;;3.00;58.20
74403;BME280;62837;51.082;13.744;2023-04-03T02:31:59;101575.35;;;2.97;58.89
74403;BME280;62837;51.082;13.744;2023-04-03T02:34:30;101577.38;;;2.98;58.91
74403;BME280;62837;51.082;13.744;2023-04-03T02:37:01;101580.55;;;2.98;58.29
74403;BME280;62837;51.082;13.744;2023-04-03T02:39:32;101576.65;;;2.86;58.06
74403;BME280;62837;51.082;13.744;2023-04-03T02:42:04;101585.70;;;2.70;58.15
74403;BME280;62837;51.082;13.744;2023-04-03T02:44:35;101586.23;;;2.60;58.46
74403;BME280;62837;51.082;13.744;2023-04-03T02:47:06;101592.31;;;2.54;59.21
74403;BME280;62837;51.082;13.744;2023-04-03T02:49:37;101591.95;;;2.53;59.12
74403;BME280;62837;51.082;13.744;2023-04-03T02:52:08;101591.38;;;2.50;59.16
74403;BME280;62837;51.082;13.744;2023-04-03T02:54:39;101591.88;;;2.46;58.79
74403;BME280;62837;51.082;13.744;2023-04-03T02:57:11;101595.45;;;2.41;59.35
74403;BME280;62837;51.082;13.744;2023-04-03T02:59:43;101597.30;;;2.40;59.71
74403;BME280;62837;51.082;13.744;2023-04-03T03:02:14;101601.79;;;2.37;59.79
74403;BME280;62837;51.082;13.744;2023-04-03T03:04:45;101602.02;;;2.35;59.96
74403;BME280;62837;51.082;13.744;2023-04-03T03:07:16;101607.66;;;2.34;60.13
74403;BME280;62837;51.082;13.744;2023-04-03T03:09:46;101609.42;;;2.35;59.60
74403;BME280;62837;51.082;13.744;2023-04-03T03:12:17;101613.23;;;2.30;60.05
74403;BME280;62837;51.082;13.744;2023-04-03T03:14:52;101614.60;;;2.23;59.72
74403;BME280;62837;51.082;13.744;2023-04-03T03:17:23;101614.67;;;2.16;60.39
74403;BME280;62837;51.082;13.744;2023-04-03T03:19:54;101617.55;;;2.11;60.48
74403;BME280;62837;51.082;13.744;2023-04-03T03:22:25;101621.72;;;2.11;60.44
74403;BME280;62837;51.082;13.744;2023-04-03T03:24:56;101619.79;;;2.12;60.83
74403;BME280;62837;51.082;13.744;2023-04-03T03:27:26;101621.55;;;2.09;60.38
74403;BME280;62837;51.082;13.744;2023-04-03T03:29:57;101619.50;;;2.02;60.42
74403;BME280;62837;51.082;13.744;2023-04-03T03:32:30;101621.70;;;1.96;60.62
74403;BME280;62837;51.082;13.744;2023-04-03T03:35:04;101621.29;;;1.93;60.98
74403;BME280;62837;51.082;13.744;2023-04-03T03:37:35;101620.28;;;1.87;60.72
74403;BME280;62837;51.082;13.744;2023-04-03T03:40:08;101625.89;;;1.83;60.89
74403;BME280;62837;51.082;13.744;2023-04-03T03:42:41;101624.87;;;1.80;61.35
74403;BME280;62837;51.082;13.744;2023-04-03T03:45:12;101630.42;;;1.79;61.03
74403;BME280;62837;51.082;13.744;2023-04-03T03:47:43;101631.63;;;1.73;61.32
74403;BME280;62837;51.082;13.744;2023-04-03T03:50:15;101631.93;;;1.74;61.95
74403;BME280;62837;51.082;13.744;2023-04-03T03:52:46;101635.39;;;1.77;61.73
74403;BME280;62837;51.082;13.744;2023-04-03T03:55:17;101632.36;;;1.77;61.69
74403;BME280;62837;51.082;13.744;2023-04-03T03:57:52;101635.23;;;1.70;61.43
74403;BME280;62837;51.082;13.744;2023-04-03T04:00:24;101634.17;;;1.68;62.23
74403;BME280;62837;51.082;13.744;2023-04-03T04:02:55;101637.16;;;1.63;62.14
74403;BME280;62837;51.082;13.744;2023-04-03T04:05:28;101635.09;;;1.55;62.55
74403;BME280;62837;51.082;13.744;2023-04-03T04:08:00;101632.35;;;1.51;62.67
74403;BME280;62837;51.082;13.744;2023-04-03T04:13:02;101629.09;;;1.46;62.83
74403;BME280;62837;51.082;13.744;2023-04-03T04:15:33;101638.66;;;1.48;62.84
74403;BME280;62837;51.082;13.744;2023-04-03T04:18:05;101644.61;;;1.42;62.99
74403;BME280;62837;51.082;13.744;2023-04-03T04:20:35;101647.46;;;1.42;63.21
74403;BME280;62837;51.082;13.744;2023-04-03T04:23:06;101642.04;;;1.37;63.27
74403;BME280;62837;51.082;13.744;2023-04-03T04:25:38;101653.66;;;1.43;63.17
74403;BME280;62837;51.082;13.744;2023-04-03T04:28:09;101656.19;;;1.35;63.46
74403;BME280;62837;51.082;13.744;2023-04-03T04:30:40;101658.55;;;1.25;63.81
74403;BME280;62837;51.082;13.744;2023-04-03T04:33:12;101657.35;;;1.18;64.06
74403;BME280;62837;51.082;13.744;2023-04-03T04:35:46;101662.20;;;1.13;64.52
74403;BME280;62837;51.082;13.744;2023-04-03T04:38:18;101667.36;;;1.05;64.74
74403;BME280;62837;51.082;13.744;2023-04-03T04:40:49;101668.20;;;1.03;65.12
74403;BME280;62837;51.082;13.744;2023-04-03T04:43:21;101671.15;;;1.04;65.03
74403;BME280;62837;51.082;13.744;2023-04-03T04:46:04;101671.91;;;1.02;64.85
74403;BME280;62837;51.082;13.744;2023-04-03T04:48:38;101678.30;;;0.99;65.21
74403;BME280;62837;51.082;13.744;2023-04-03T04:51:10;101680.19;;;0.97;65.38
74403;BME280;62837;51.082;13.744;2023-04-03T04:53:41;101678.81;;;0.95;65.26
74403;BME280;62837;51.082;13.744;2023-04-03T04:56:13;101678.25;;;0.92;65.56
74403;BME280;62837;51.082;13.744;2023-04-03T04:58:44;101682.52;;;0.92;65.28
74403;BME280;62837;51.082;13.744;2023-04-03T05:01:15;101686.52;;;0.94;65.47
74403;BME280;62837;51.082;13.744;2023-04-03T05:03:53;101693.23;;;0.95;65.28
74403;BME280;62837;51.082;13.744;2023-04-03T05:06:24;101697.32;;;0.96;65.74
74403;BME280;62837;51.082;13.744;2023-04-03T05:08:56;101692.45;;;0.94;65.51
74403;BME280;62837;51.082;13.744;2023-04-03T05:11:27;101691.93;;;0.90;65.76
74403;BME280;62837;51.082;13.744;2023-04-03T05:13:57;101694.89;;;0.95;66.00
74403;BME280;62837;51.082;13.744;2023-04-03T05:16:29;101697.30;;;0.94;65.75
74403;BME280;62837;51.082;13.744;2023-04-03T05:19:00;101699.27;;;0.98;65.76
74403;BME280;62837;51.082;13.744;2023-04-03T05:21:31;101701.88;;;1.03;66.30
74403;BME280;62837;51.082;13.744;2023-04-03T05:24:06;101703.32;;;1.10;66.49
74403;BME280;62837;51.082;13.744;2023-04-03T05:26:40;101702.97;;;1.13;67.02
74403;BME280;62837;51.082;13.744;2023-04-03T05:29:11;101700.61;;;1.12;67.22
74403;BME280;62837;51.082;13.744;2023-04-03T05:31:43;101703.59;;;1.19;68.59
74403;BME280;62837;51.082;13.744;2023-04-03T05:34:15;101706.80;;;1.21;67.48
74403;BME280;62837;51.082;13.744;2023-04-03T05:36:46;101706.16;;;1.22;67.60
74403;BME280;62837;51.082;13.744;2023-04-03T05:39:17;101707.13;;;1.32;67.85
74403;BME280;62837;51.082;13.744;2023-04-03T05:41:48;101710.79;;;1.57;74.36
74403;BME280;62837;51.082;13.744;2023-04-03T05:44:20;101712.02;;;2.71;81.25
74403;BME280;62837;51.082;13.744;2023-04-03T05:46:51;101708.28;;;3.76;76.69
74403;BME280;62837;51.082;13.744;2023-04-03T05:49:42;101705.91;;;4.27;71.37
74403;BME280;62837;51.082;13.744;2023-04-03T05:52:20;101701.86;;;4.59;66.63
74403;BME280;62837;51.082;13.744;2023-04-03T05:54:52;101698.51;;;4.48;62.33
74403;BME280;62837;51.082;13.744;2023-04-03T05:57:26;101703.90;;;4.50;60.77
74403;BME280;62837;51.082;13.744;2023-04-03T05:59:58;101705.90;;;4.54;60.32
74403;BME280;62837;51.082;13.744;2023-04-03T06:02:29;101705.42;;;4.71;60.22
74403;BME280;62837;51.082;13.744;2023-04-03T06:05:02;101710.53;;;4.71;58.21
74403;BME280;62837;51.082;13.744;2023-04-03T06:07:34;101711.73;;;4.70;59.02
74403;BME280;62837;51.082;13.744;2023-04-03T06:10:07;101710.23;;;4.82;58.12
74403;BME280;62837;51.082;13.744;2023-04-03T06:12:36;101714.67;;;4.89;57.28
74403;BME280;62837;51.082;13.744;2023-04-03T06:15:09;101714.62;;;4.93;57.44
74403;BME280;62837;51.082;13.744;2023-04-03T06:17:42;101719.46;;;4.98;57.55
74403;BME280;62837;51.082;13.744;2023-04-03T06:20:14;101721.66;;;5.21;64.10
74403;BME280;62837;51.082;13.744;2023-04-03T06:22:45;101718.10;;;5.49;61.09
74403;BME280;62837;51.082;13.744;2023-04-03T06:25:16;101718.95;;;5.54;58.66
74403;BME280;62837;51.082;13.744;2023-04-03T06:27:48;101715.35;;;5.34;55.93
74403;BME280;62837;51.082;13.744;2023-04-03T06:30:19;101720.41;;;5.07;56.44
74403;BME280;62837;51.082;13.744;2023-04-03T06:32:50;101720.61;;;4.82;55.96
74403;BME280;62837;51.082;13.744;2023-04-03T06:35:21;101725.13;;;4.54;56.38
74403;BME280;62837;51.082;13.744;2023-04-03T06:37:53;101729.56;;;4.34;56.97
74403;BME280;62837;51.082;13.744;2023-04-03T06:40:25;101730.57;;;4.11;56.34
74403;BME280;62837;51.082;13.744;2023-04-03T06:42:56;101734.76;;;3.92;56.94
74403;BME280;62837;51.082;13.744;2023-04-03T06:45:26;101739.70;;;3.82;57.51
74403;BME280;62837;51.082;13.744;2023-04-03T06:47:57;101738.54;;;3.78;57.69
74403;BME280;62837;51.082;13.744;2023-04-03T06:50:29;101739.98;;;3.70;58.03
74403;BME280;62837;51.082;13.744;2023-04-03T06:53:00;101744.38;;;3.61;57.98
74403;BME280;62837;51.082;13.744;2023-04-03T06:55:31;101736.98;;;3.55;58.09
74403;BME280;62837;51.082;13.744;2023-04-03T06:58:02;101746.59;;;3.56;58.14
74403;BME280;62837;51.082;13.744;2023-04-03T07:00:34;101750.05;;;3.56;58.33
74403;BME280;62837;51.082;13.744;2023-04-03T07:03:05;101752.77;;;3.52;58.34
74403;BME280;62837;51.082;13.744;2023-04-03T07:05:36;101753.28;;;3.50;58.57
74403;BME280;62837;51.082;13.744;2023-04-03T07:08:07;101759.96;;;3.81;70.16
74403;BME280;62837;51.082;13.744;2023-04-03T07:10:39;101760.41;;;4.36;64.60
74403;BME280;62837;51.082;13.744;2023-04-03T07:13:09;101761.04;;;4.32;59.39
74403;BME280;62837;51.082;13.744;2023-04-03T07:15:40;101763.63;;;4.17;58.77
74403;BME280;62837;51.082;13.744;2023-04-03T07:18:11;101768.70;;;4.13;58.68
74403;BME280;62837;51.082;13.744;2023-04-03T07:20:42;101777.39;;;4.04;57.71
74403;BME280;62837;51.082;13.744;2023-04-03T07:23:13;101775.71;;;3.87;57.31
74403;BME280;62837;51.082;13.744;2023-04-03T07:25:45;101771.80;;;3.67;58.09
74403;BME280;62837;51.082;13.744;2023-04-03T07:28:17;101778.64;;;3.55;58.51
74403;BME280;62837;51.082;13.744;2023-04-03T07:30:50;101781.20;;;3.47;58.40
74403;BME280;62837;51.082;13.744;2023-04-03T07:33:22;101784.16;;;3.40;58.63
74403;BME280;62837;51.082;13.744;2023-04-03T07:35:53;101786.39;;;3.38;59.30
74403;BME280;62837;51.082;13.744;2023-04-03T07:38:25;101785.36;;;3.33;58.89
74403;BME280;62837;51.082;13.744;2023-04-03T07:40:56;101789.36;;;3.29;59.25
74403;BME280;62837;51.082;13.744;2023-04-03T07:43:27;101786.00;;;3.28;59.33
74403;BME280;62837;51.082;13.744;2023-04-03T07:45:58;101792.90;;;3.26;59.45
74403;BME280;62837;51.082;13.744;2023-04-03T07:48:30;101793.37;;;3.28;59.55
74403;BME280;62837;51.082;13.744;2023-04-03T07:51:02;101794.55;;;3.29;59.23
74403;BME280;62837;51.082;13.744;2023-04-03T07:53:34;101800.78;;;3.24;59.07
74403;BME280;62837;51.082;13.744;2023-04-03T07:56:05;101797.05;;;3.19;59.02
74403;BME280;62837;51.082;13.744;2023-04-03T07:58:37;101794.39;;;3.14;59.22
74403;BME280;62837;51.082;13.744;2023-04-03T08:01:07;101798.38;;;3.11;59.21
74403;BME280;62837;51.082;13.744;2023-04-03T08:03:39;101796.12;;;3.07;59.34
74403;BME280;62837;51.082;13.744;2023-04-03T08:06:10;101798.55;;;3.10;59.65
74403;BME280;62837;51.082;13.744;2023-04-03T08:08:45;101798.41;;;3.20;59.31
74403;BME280;62837;51.082;13.744;2023-04-03T08:11:16;101796.48;;;3.22;59.81
74403;BME280;62837;51.082;13.744;2023-04-03T08:13:48;101790.46;;;3.30;59.38
74403;BME280;62837;51.082;13.744;2023-04-03T08:16:22;101795.59;;;3.45;59.22
74403;BME280;62837;51.082;13.744;2023-04-03T08:18:55;101793.63;;;3.53;58.57
74403;BME280;62837;51.082;13.744;2023-04-03T08:21:25;101791.62;;;3.51;57.86
74403;BME280;62837;51.082;13.744;2023-04-03T08:23:56;101793.70;;;3.49;58.70
74403;BME280;62837;51.082;13.744;2023-04-03T08:26:27;101797.02;;;3.53;58.52
74403;BME280;62837;51.082;13.744;2023-04-03T08:28:58;101790.05;;;3.56;57.94
74403;BME280;62837;51.082;13.744;2023-04-03T08:31:29;101796.42;;;3.58;57.96
74403;BME280;62837;51.082;13.744;2023-04-03T08:34:00;101794.77;;;3.63;58.38
74403;BME280;62837;51.082;13.744;2023-04-03T08:36:31;101799.41;;;3.62;57.83
74403;BME280;62837;51.082;13.744;2023-04-03T08:39:02;101802.23;;;3.61;57.96
74403;BME280;62837;51.082;13.744;2023-04-03T08:41:35;101801.27;;;3.63;58.12
74403;BME280;62837;51.082;13.744;2023-04-03T08:44:17;101800.68;;;3.59;57.85
74403;BME280;62837;51.082;13.744;2023-04-03T08:47:09;101798.63;;;3.61;58.05
74403;BME280;62837;51.082;13.744;2023-04-03T08:49:43;101799.84;;;3.69;57.93
74403;BME280;62837;51.082;13.744;2023-04-03T08:52:19;101798.64;;;3.67;57.38
74403;BME280;62837;51.082;13.744;2023-04-03T08:54:53;101799.50;;;3.70;58.31
74403;BME280;62837;51.082;13.744;2023-04-03T08:57:30;101801.56;;;3.82;58.24
74403;BME280;62837;51.082;13.744;2023-04-03T09:00:05;101797.95;;;3.88;58.07
74403;BME280;62837;51.082;13.744;2023-04-03T09:02:41;101804.89;;;3.87;57.14
74403;BME280;62837;51.082;13.744;2023-04-03T09:05:18;101800.83;;;3.85;57.60
74403;BME280;62837;51.082;13.744;2023-04-03T09:07:56;101802.02;;;3.86;57.66
74403;BME280;62837;51.082;13.744;2023-04-03T09:10:33;101798.93;;;3.97;57.89
74403;BME280;62837;51.082;13.744;2023-04-03T09:13:08;101795.30;;;4.13;58.21
74403;BME280;62837;51.082;13.744;2023-04-03T09:15:42;101794.24;;;4.37;57.48
74403;BME280;62837;51.082;13.744;2023-04-03T09:18:19;101787.59;;;4.69;56.75
74403;BME280;62837;51.082;13.744;2023-04-03T09:20:58;101791.13;;;4.83;56.79
74403;BME280;62837;51.082;13.744;2023-04-03T09:23:37;101789.90;;;4.86;55.27
74403;BME280;62837;51.082;13.744;2023-04-03T09:26:18;101792.59;;;4.83;54.99
74403;BME280;62837;51.082;13.744;2023-04-03T09:28:48;101790.00;;;4.76;54.56
74403;BME280;62837;51.082;13.744;2023-04-03T09:31:23;101789.54;;;4.72;54.29
74403;BME280;62837;51.082;13.744;2023-04-03T09:33:59;101786.38;;;4.78;55.39
74403;BME280;62837;51.082;13.744;2023-04-03T09:36:43;101788.64;;;4.86;54.95
74403;BME280;62837;51.082;13.744;2023-04-03T09:39:17;101790.09;;;5.21;68.54
74403;BME280;62837;51.082;13.744;2023-04-03T09:41:59;101782.16;;;5.76;66.06
74403;BME280;62837;51.082;13.744;2023-04-03T09:44:32;101779.94;;;6.21;61.06
74403;BME280;62837;51.082;13.744;2023-04-03T09:47:19;101775.86;;;6.30;56.13
74403;BME280;62837;51.082;13.744;2023-04-03T09:50:15;101776.41;;;6.17;54.05
74403;BME280;62837;51.082;13.744;2023-04-03T09:52:50;101770.64;;;6.15;53.28
74403;BME280;62837;51.082;13.744;2023-04-03T09:55:23;101769.52;;;6.27;53.21
74403;BME280;62837;51.082;13.744;2023-04-03T09:57:59;101769.31;;;6.23;51.03
74403;BME280;62837;51.082;13.744;2023-04-03T10:00:33;101764.29;;;6.14;51.67
74403;BME280;62837;51.082;13.744;2023-04-03T10:03:20;101763.56;;;6.12;51.45
74403;BME280;62837;51.082;13.744;2023-04-03T10:05:53;101762.22;;;6.22;52.68
74403;BME280;62837;51.082;13.744;2023-04-03T10:08:27;101760.02;;;6.25;52.76
74403;BME280;62837;51.082;13.744;2023-04-03T10:11:11;101758.13;;;6.15;51.41
74403;BME280;62837;51.082;13.744;2023-04-03T10:13:53;101753.58;;;6.30;51.75
74403;BME280;62837;51.082;13.744;2023-04-03T10:16:30;101747.70;;;6.71;52.07
74403;BME280;62837;51.082;13.744;2023-04-03T10:19:19;101746.09;;;7.15;50.94
74403;BME280;62837;51.082;13.744;2023-04-03T10:21:59;101745.89;;;7.49;50.65
74403;BME280;62837;51.082;13.744;2023-04-03T10:24:36;101742.33;;;7.61;50.65
74403;BME280;62837;51.082;13.744;2023-04-03T10:27:16;101740.79;;;7.47;46.87
74403;BME280;62837;51.082;13.744;2023-04-03T10:29:54;101743.80;;;7.19;44.50
74403;BME280;62837;51.082;13.744;2023-04-03T10:32:40;101743.09;;;7.04;43.86
74403;BME280;62837;51.082;13.744;2023-04-03T10:35:19;101739.97;;;6.85;43.81
74403;BME280;62837;51.082;13.744;2023-04-03T10:38:03;101736.89;;;6.91;44.40
74403;BME280;62837;51.082;13.744;2023-04-03T10:40:44;101730.99;;;6.98;44.93
74403;BME280;62837;51.082;13.744;2023-04-03T10:43:24;101732.53;;;6.86;44.76
74403;BME280;62837;51.082;13.744;2023-04-03T10:46:04;101736.02;;;6.74;43.79
74403;BME280;62837;51.082;13.744;2023-04-03T10:48:44;101737.64;;;6.58;43.66
74403;BME280;62837;51.082;13.744;2023-04-03T10:51:25;101734.09;;;6.48;43.00
74403;BME280;62837;51.082;13.744;2023-04-03T10:54:03;101734.35;;;6.55;43.35
74403;BME280;62837;51.082;13.744;2023-04-03T10:56:40;101730.11;;;6.45;44.33
74403;BME280;62837;51.082;13.744;2023-04-03T10:59:21;101725.77;;;6.42;44.67
74403;BME280;62837;51.082;13.744;2023-04-03T11:01:56;101722.58;;;6.40;44.13
74403;BME280;62837;51.082;13.744;2023-04-03T11:04:29;101721.65;;;6.36;43.92
74403;BME280;62837;51.082;13.744;2023-04-03T11:07:03;101725.56;;;6.26;43.30
74403;BME280;62837;51.082;13.744;2023-04-03T11:09:41;101724.85;;;6.10;42.57
74403;BME280;62837;51.082;13.744;2023-04-03T11:12:15;101719.67;;;6.00;43.53
74403;BME280;62837;51.082;13.744;2023-04-03T11:14:48;101717.35;;;5.94;43.95
74403;BME280;62837;51.082;13.744;2023-04-03T11:17:30;101716.09;;;5.87;43.83
74403;BME280;62837;51.082;13.744;2023-04-03T11:20:09;101709.77;;;5.91;44.11
74403;BME280;62837;51.082;13.744;2023-04-03T11:22:49;101714.61;;;6.18;44.72
74403;BME280;62837;51.082;13.744;2023-04-03T11:25:23;101708.10;;;6.28;42.72
74403;BME280;62837;51.082;13.744;2023-04-03T11:27:58;101708.86;;;6.39;41.87
74403;BME280;62837;51.082;13.744;2023-04-03T11:30:36;101704.58;;;6.35;41.80
74403;BME280;62837;51.082;13.744;2023-04-03T11:33:28;101703.67;;;6.26;42.31
74403;BME280;62837;51.082;13.744;2023-04-03T11:36:06;101705.36;;;6.26;43.50
74403;BME280;62837;51.082;13.744;2023-04-03T11:39:01;101700.70;;;6.26;42.97
74403;BME280;62837;51.082;13.744;2023-04-03T11:41:37;101695.77;;;6.31;44.00
74403;BME280;62837;51.082;13.744;2023-04-03T11:44:32;101694.93;;;6.44;44.90
74403;BME280;62837;51.082;13.744;2023-04-03T11:47:04;101695.08;;;6.54;45.05
74403;BME280;62837;51.082;13.744;2023-04-03T11:49:59;101702.61;;;6.54;44.03
74403;BME280;62837;51.082;13.744;2023-04-03T11:55:55;101702.54;;;6.32;44.06
74403;BME280;62837;51.082;13.744;2023-04-03T11:58:27;101706.42;;;6.29;43.54
74403;BME280;62837;51.082;13.744;2023-04-03T12:01:10;101699.25;;;6.20;43.46
74403;BME280;62837;51.082;13.744;2023-04-03T12:13:12;101693.94;;;6.34;42.72
74403;BME280;62837;51.082;13.744;2023-04-03T12:15:52;101697.12;;;6.37;41.91
74403;BME280;62837;51.082;13.744;2023-04-03T12:18:56;101695.33;;;6.28;41.93
74403;BME280;62837;51.082;13.744;2023-04-03T12:24:53;101690.86;;;6.10;42.64
74403;BME280;62837;51.082;13.744;2023-04-03T12:27:27;101688.83;;;6.09;43.34
74403;BME280;62837;51.082;13.744;2023-04-03T12:30:24;101688.98;;;6.13;42.92
74403;BME280;62837;51.082;13.744;2023-04-03T12:33:18;101683.60;;;6.07;41.81
74403;BME280;62837;51.082;13.744;2023-04-03T12:36:02;101688.02;;;5.97;42.26
74403;BME280;62837;51.082;13.744;2023-04-03T12:39:02;101683.73;;;5.91;42.91
74403;BME280;62837;51.082;13.744;2023-04-03T12:41:44;101684.14;;;5.90;43.34
74403;BME280;62837;51.082;13.744;2023-04-03T12:44:36;101689.27;;;5.90;44.09
74403;BME280;62837;51.082;13.744;2023-04-03T12:47:22;101689.20;;;5.86;44.02
74403;BME280;62837;51.082;13.744;2023-04-03T12:49:54;101686.11;;;5.83;44.20
74403;BME280;62837;51.082;13.744;2023-04-03T12:52:37;101685.48;;;5.84;44.93
74403;BME280;62837;51.082;13.744;2023-04-03T12:55:17;101692.05;;;5.88;44.64
74403;BME280;62837;51.082;13.744;2023-04-03T12:57:48;101690.23;;;5.87;44.47
74403;BME280;62837;51.082;13.744;2023-04-03T13:00:30;101694.80;;;5.86;44.27
74403;BME280;62837;51.082;13.744;2023-04-03T13:03:03;101692.58;;;5.84;44.24
74403;BME280;62837;51.082;13.744;2023-04-03T13:05:35;101695.02;;;5.82;44.27
74403;BME280;62837;51.082;13.744;2023-04-03T13:08:12;101694.48;;;5.81;44.54
74403;BME280;62837;51.082;13.744;2023-04-03T13:10:54;101693.95;;;5.78;43.95
74403;BME280;62837;51.082;13.744;2023-04-03T13:13:26;101693.61;;;5.73;44.02
74403;BME280;62837;51.082;13.744;2023-04-03T13:15:57;101692.96;;;5.71;43.97
74403;BME280;62837;51.082;13.744;2023-04-03T13:18:34;101685.61;;;5.70;43.73
74403;BME280;62837;51.082;13.744;2023-04-03T13:21:07;101685.77;;;5.75;43.93
74403;BME280;62837;51.082;13.744;2023-04-03T13:23:42;101687.04;;;5.79;43.55
74403;BME280;62837;51.082;13.744;2023-04-03T13:26:16;101688.12;;;5.89;43.38
74403;BME280;62837;51.082;13.744;2023-04-03T13:28:48;101683.23;;;5.96;43.83
74403;BME280;62837;51.082;13.744;2023-04-03T13:31:25;101685.14;;;5.99;43.94
74403;BME280;62837;51.082;13.744;2023-04-03T13:34:04;101679.30;;;5.95;43.74
74403;BME280;62837;51.082;13.744;2023-04-03T13:36:37;101680.87;;;5.90;43.83
74403;BME280;62837;51.082;13.744;2023-04-03T13:39:23;101675.77;;;5.86;44.33
74403;BME280;62837;51.082;13.744;2023-04-03T13:41:56;101682.85;;;5.88;44.71
74403;BME280;62837;51.082;13.744;2023-04-03T13:44:32;101677.28;;;5.86;44.66
74403;BME280;62837;51.082;13.744;2023-04-03T13:47:18;101680.67;;;5.86;44.96
74403;BME280;62837;51.082;13.744;2023-04-03T13:50:01;101674.84;;;5.82;43.01